createdAt,value
2018-07-03T00:01:58.116Z,1.53
2018-07-03T00:04:26.569Z,1.70
2018-07-03T00:06:55.375Z,1.67
2018-07-03T00:09:23.845Z,1.50
2018-07-03T00:11:52.345Z,1.63
2018-07-03T00:14:20.524Z,1.77
2018-07-03T00:16:54.382Z,1.80
2018-07-03T00:19:22.858Z,1.70
2018-07-03T00:21:51.297Z,1.63
2018-07-03T00:24:20.381Z,1.73
2018-07-03T00:26:48.920Z,1.70
2018-07-03T00:29:17.460Z,1.67
2018-07-03T00:31:45.971Z,1.60
2018-07-03T00:34:14.441Z,1.50
2018-07-03T00:36:42.964Z,1.50
2018-07-03T00:39:11.404Z,1.87
2018-07-03T00:41:39.884Z,1.60
2018-07-03T00:44:08.353Z,1.80
2018-07-03T00:46:36.776Z,1.93
2018-07-03T00:49:05.700Z,1.47
2018-07-03T00:51:34.181Z,1.63
2018-07-03T00:54:02.360Z,1.60
2018-07-03T00:56:30.844Z,1.60
2018-07-03T00:58:59.412Z,1.73
2018-07-03T01:01:27.905Z,1.60
2018-07-03T01:03:56.351Z,1.80
2018-07-03T01:06:24.817Z,1.73
2018-07-03T01:08:53.325Z,2.03
2018-07-03T01:11:21.781Z,1.50
2018-07-03T01:13:50.402Z,1.50
2018-07-03T01:16:18.897Z,2.13
2018-07-03T01:18:47.458Z,2.13
2018-07-03T01:21:15.971Z,1.60
2018-07-03T01:23:44.530Z,1.73
2018-07-03T01:26:13.097Z,2.07
2018-07-03T01:28:41.724Z,1.90
2018-07-03T01:31:10.185Z,1.70
2018-07-03T01:33:38.697Z,2.03
2018-07-03T01:36:07.342Z,1.80
2018-07-03T01:38:35.886Z,1.70
2018-07-03T01:41:04.393Z,1.83
2018-07-03T01:43:32.821Z,2.00
2018-07-03T01:46:01.276Z,1.73
2018-07-03T01:48:29.721Z,1.77
2018-07-03T01:50:58.233Z,1.93
2018-07-03T01:53:26.757Z,1.92
2018-07-03T01:55:55.268Z,1.70
2018-07-03T01:58:23.722Z,1.90
2018-07-03T02:00:52.177Z,1.90
2018-07-03T02:03:20.651Z,1.37
2018-07-03T02:05:49.092Z,2.07
2018-07-03T02:08:17.557Z,2.10
2018-07-03T02:10:45.968Z,2.07
2018-07-03T02:13:14.456Z,1.70
2018-07-03T02:15:42.950Z,1.80
2018-07-03T02:18:11.472Z,1.57
2018-07-03T02:20:39.895Z,1.70
2018-07-03T02:23:08.365Z,1.60
2018-07-03T02:25:36.841Z,1.80
2018-07-03T02:28:05.341Z,2.10
2018-07-03T02:30:33.826Z,2.10
2018-07-03T02:33:02.462Z,1.87
2018-07-03T02:35:31.528Z,1.77
2018-07-03T02:37:59.973Z,2.00
2018-07-03T02:40:28.470Z,1.90
2018-07-03T02:42:56.893Z,1.77
2018-07-03T02:45:25.068Z,1.80
2018-07-03T02:47:53.534Z,1.55
2018-07-03T02:50:22.010Z,1.73
2018-07-03T02:52:50.464Z,1.90
2018-07-03T02:55:19.013Z,1.75
2018-07-03T02:57:47.580Z,2.17
2018-07-03T03:00:16.083Z,1.63
2018-07-03T03:02:44.563Z,1.62
2018-07-03T03:05:13.048Z,2.12
2018-07-03T03:07:41.493Z,1.62
2018-07-03T03:10:09.962Z,2.05
2018-07-03T03:12:38.437Z,1.75
2018-07-03T03:15:06.973Z,1.70
2018-07-03T03:17:35.460Z,1.90
2018-07-03T03:20:04.246Z,1.97
2018-07-03T03:22:32.742Z,2.00
2018-07-03T03:25:00.881Z,2.02
2018-07-03T03:27:29.340Z,1.93
2018-07-03T03:29:57.797Z,2.23
2018-07-03T03:32:26.221Z,2.17
2018-07-03T03:34:54.666Z,1.80
2018-07-03T03:37:23.575Z,2.20
2018-07-03T03:39:52.158Z,1.83
2018-07-03T03:42:20.742Z,2.40
2018-07-03T03:44:49.161Z,1.95
2018-07-03T03:47:17.605Z,2.30
2018-07-03T03:49:46.161Z,2.27
2018-07-03T03:52:14.645Z,1.80
2018-07-03T03:54:43.136Z,2.17
2018-07-03T03:57:11.602Z,1.70
2018-07-03T03:59:40.170Z,1.82
2018-07-03T04:02:09.519Z,1.80
2018-07-03T04:04:38.017Z,1.80
2018-07-03T04:07:06.728Z,2.40
2018-07-03T04:09:35.213Z,1.98
2018-07-03T04:12:03.773Z,2.22
2018-07-03T04:14:32.321Z,2.17
2018-07-03T04:17:00.845Z,2.20
2018-07-03T04:19:29.356Z,2.22
2018-07-03T04:21:57.810Z,2.72
2018-07-03T04:24:26.305Z,2.53
2018-07-03T04:26:54.862Z,2.10
2018-07-03T04:29:22.968Z,2.12
2018-07-03T04:31:51.530Z,2.07
2018-07-03T04:34:20.180Z,2.67
2018-07-03T04:36:49.087Z,2.65
2018-07-03T04:39:17.552Z,2.70
2018-07-03T04:41:47.237Z,2.30
2018-07-03T04:44:15.745Z,2.20
2018-07-03T04:46:44.257Z,2.40
2018-07-03T04:49:12.756Z,2.60
2018-07-03T04:51:41.197Z,2.13
2018-07-03T04:54:09.672Z,2.47
2018-07-03T04:56:38.114Z,2.60
2018-07-03T04:59:07.084Z,2.30
2018-07-03T05:01:35.529Z,2.50
2018-07-03T05:04:04.157Z,2.20
2018-07-03T05:06:32.619Z,2.50
2018-07-03T05:09:01.221Z,2.50
2018-07-03T05:11:30.106Z,2.57
2018-07-03T05:13:58.584Z,2.70
2018-07-03T05:16:27.117Z,2.33
2018-07-03T05:18:55.616Z,2.37
2018-07-03T05:21:24.041Z,2.70
2018-07-03T05:23:52.490Z,2.40
2018-07-03T05:26:20.927Z,2.57
2018-07-03T05:28:49.356Z,2.80
2018-07-03T05:31:17.815Z,2.70
2018-07-03T05:33:46.284Z,2.60
2018-07-03T05:36:14.827Z,2.37
2018-07-03T05:38:43.325Z,2.80
2018-07-03T05:41:11.825Z,2.63
2018-07-03T05:43:40.281Z,2.47
2018-07-03T05:46:08.821Z,2.40
2018-07-03T05:48:37.260Z,3.30
2018-07-03T05:51:05.804Z,2.40
2018-07-03T05:53:34.233Z,1.93
2018-07-03T05:56:02.726Z,2.00
2018-07-03T05:58:31.204Z,2.30
2018-07-03T06:00:59.762Z,1.93
2018-07-03T06:03:28.165Z,2.33
2018-07-03T06:05:56.620Z,1.77
2018-07-03T06:08:25.146Z,2.87
2018-07-03T06:10:53.626Z,2.50
2018-07-03T06:13:22.228Z,2.63
2018-07-03T06:15:50.719Z,2.17
2018-07-03T06:18:19.593Z,2.50
2018-07-03T06:20:48.446Z,2.40
2018-07-03T06:23:16.937Z,2.43
2018-07-03T06:25:45.416Z,2.67
2018-07-03T06:28:13.877Z,2.33
2018-07-03T06:30:42.453Z,3.20
2018-07-03T06:33:10.565Z,2.70
2018-07-03T06:35:39.035Z,2.70
2018-07-03T06:38:07.497Z,2.83
2018-07-03T06:40:36.018Z,2.43
2018-07-03T06:43:04.565Z,2.97
2018-07-03T06:45:33.045Z,2.53
2018-07-03T06:48:01.536Z,2.73
2018-07-03T06:50:30.058Z,2.47
2018-07-03T06:52:58.567Z,3.17
2018-07-03T06:55:27.103Z,2.90
2018-07-03T06:57:55.824Z,2.23
2018-07-03T07:00:24.500Z,2.10
2018-07-03T07:02:53.000Z,1.60
2018-07-03T07:05:21.481Z,2.30
2018-07-03T07:07:50.016Z,1.73
2018-07-03T07:10:19.040Z,1.87
2018-07-03T07:12:47.542Z,1.40
2018-07-03T07:15:16.429Z,1.57
2018-07-03T07:17:44.957Z,1.30
2018-07-03T07:20:13.416Z,1.23
2018-07-03T07:22:42.760Z,1.57
2018-07-03T07:25:11.206Z,1.47
2018-07-03T07:27:39.705Z,1.60
2018-07-03T07:30:08.182Z,1.50
2018-07-03T07:32:36.377Z,1.43
2018-07-03T07:35:04.985Z,1.60
2018-07-03T07:37:33.472Z,1.40
2018-07-03T07:40:01.948Z,1.57
2018-07-03T07:42:30.455Z,1.30
2018-07-03T07:44:58.884Z,1.47
2018-07-03T07:47:27.398Z,1.43
2018-07-03T07:49:55.900Z,1.43
2018-07-03T07:52:24.668Z,1.30
2018-07-03T07:54:53.168Z,1.37
2018-07-03T07:57:21.629Z,1.70
2018-07-03T07:59:50.113Z,1.40
2018-07-03T08:02:19.807Z,1.60
2018-07-03T08:04:48.275Z,1.40
2018-07-03T08:07:16.741Z,1.77
2018-07-03T08:09:45.252Z,1.40
2018-07-03T08:12:14.528Z,1.40
2018-07-03T08:14:43.098Z,1.23
2018-07-03T08:17:11.521Z,1.20
2018-07-03T08:19:40.022Z,1.40
2018-07-03T08:22:08.544Z,1.40
2018-07-03T08:24:37.043Z,1.23
2018-07-03T08:27:05.215Z,1.77
2018-07-03T08:29:33.717Z,1.20
2018-07-03T08:32:02.230Z,1.17
2018-07-03T08:34:30.686Z,1.10
2018-07-03T08:36:59.178Z,1.20
2018-07-03T08:39:27.605Z,1.33
2018-07-03T08:41:56.148Z,1.20
2018-07-03T08:44:24.585Z,1.30
2018-07-03T08:46:53.054Z,1.27
2018-07-03T08:49:21.529Z,1.07
2018-07-03T08:51:50.087Z,1.07
2018-07-03T08:54:18.574Z,1.40
2018-07-03T08:56:47.109Z,1.23
2018-07-03T08:59:30.693Z,1.40
2018-07-03T09:01:59.303Z,1.30
2018-07-03T09:04:28.092Z,1.40
2018-07-03T09:06:56.856Z,1.33
2018-07-03T09:09:25.340Z,1.70
2018-07-03T09:11:53.807Z,1.10
2018-07-03T09:14:22.221Z,1.40
2018-07-03T09:16:50.682Z,1.30
2018-07-03T09:19:19.082Z,1.20
2018-07-03T09:21:47.542Z,1.07
2018-07-03T09:24:16.012Z,1.30
2018-07-03T09:26:45.109Z,1.00
2018-07-03T09:29:13.616Z,1.37
2018-07-03T09:31:42.109Z,1.33
2018-07-03T09:34:10.565Z,1.17
2018-07-03T09:36:39.036Z,1.13
2018-07-03T09:39:09.657Z,1.40
2018-07-03T09:41:39.096Z,1.70
2018-07-03T09:44:07.260Z,1.30
2018-07-03T09:46:36.181Z,1.50
2018-07-03T09:49:04.984Z,1.30
2018-07-03T09:51:33.481Z,1.50
2018-07-03T09:54:02.560Z,1.37
2018-07-03T09:56:32.224Z,1.20
2018-07-03T09:59:00.703Z,1.40
2018-07-03T10:01:29.355Z,1.33
2018-07-03T10:03:57.805Z,1.10
2018-07-03T10:06:26.280Z,1.10
2018-07-03T10:08:54.716Z,1.20
2018-07-03T10:11:23.208Z,1.07
2018-07-03T10:13:51.741Z,1.30
2018-07-03T10:16:19.930Z,1.10
2018-07-03T10:18:48.406Z,1.40
2018-07-03T10:21:16.959Z,1.20
2018-07-03T10:23:45.471Z,1.60
2018-07-03T10:26:13.676Z,1.40
2018-07-03T10:28:42.122Z,1.23
2018-07-03T10:31:10.296Z,1.40
2018-07-03T10:33:38.462Z,1.10
2018-07-03T10:36:07.301Z,1.37
2018-07-03T10:38:35.761Z,1.00
2018-07-03T10:41:04.247Z,1.20
2018-07-03T10:43:32.726Z,1.30
2018-07-03T10:46:01.291Z,1.20
2018-07-03T10:48:29.768Z,1.10
2018-07-03T10:50:57.914Z,1.10
2018-07-03T10:53:26.389Z,1.53
2018-07-03T10:55:54.864Z,1.10
2018-07-03T10:58:23.607Z,1.30
2018-07-03T11:00:52.825Z,1.10
2018-07-03T11:03:21.709Z,1.27
2018-07-03T11:05:50.155Z,1.20
2018-07-03T11:08:18.610Z,1.50
2018-07-03T11:10:47.212Z,1.37
2018-07-03T11:13:15.682Z,1.60
2018-07-03T11:15:44.116Z,1.13
2018-07-03T11:18:12.616Z,1.40
2018-07-03T11:20:41.085Z,1.00
2018-07-03T11:23:09.576Z,1.20
2018-07-03T11:25:38.095Z,1.40
2018-07-03T11:28:06.633Z,1.03
2018-07-03T11:30:35.129Z,1.43
2018-07-03T11:33:03.830Z,1.53
2018-07-03T11:35:32.489Z,1.47
2018-07-03T11:38:01.561Z,1.40
2018-07-03T11:40:29.709Z,1.17
2018-07-03T11:42:58.228Z,1.30
2018-07-03T11:45:26.713Z,1.30
2018-07-03T11:47:55.216Z,1.47
2018-07-03T11:50:23.694Z,1.30
2018-07-03T11:52:52.122Z,1.30
2018-07-03T11:55:20.785Z,1.30
2018-07-03T11:57:49.508Z,1.37
2018-07-03T12:00:18.662Z,1.20
2018-07-03T12:02:47.122Z,1.37
2018-07-03T12:05:15.670Z,1.30
2018-07-03T12:07:44.821Z,1.70
2018-07-03T12:10:13.985Z,1.50
2018-07-03T12:12:42.477Z,1.87
2018-07-03T12:15:10.982Z,1.50
2018-07-03T12:17:39.445Z,1.90
2018-07-03T12:20:08.186Z,1.70
2018-07-03T12:22:36.352Z,1.60
2018-07-03T12:25:05.466Z,1.57
2018-07-03T12:27:34.075Z,1.40
2018-07-03T12:30:02.645Z,1.23
2018-07-03T12:32:31.183Z,1.50
2018-07-03T12:34:59.692Z,1.80
2018-07-03T12:37:28.125Z,1.50
2018-07-03T12:39:56.585Z,1.50
2018-07-03T12:42:26.137Z,1.80
2018-07-03T12:44:54.754Z,1.67
2018-07-03T12:47:23.224Z,1.50
2018-07-03T12:49:51.458Z,1.67
2018-07-03T12:52:20.855Z,1.60
2018-07-03T12:54:49.373Z,1.97
2018-07-03T12:57:17.816Z,1.40
2018-07-03T12:59:46.752Z,1.73
2018-07-03T13:02:15.446Z,1.43
2018-07-03T13:04:43.961Z,1.40
2018-07-03T13:07:13.962Z,1.50
2018-07-03T13:09:42.412Z,1.87
2018-07-03T13:12:12.299Z,1.70
2018-07-03T13:14:40.881Z,1.73
2018-07-03T13:17:09.369Z,2.20
2018-07-03T13:19:37.814Z,2.03
2018-07-03T13:22:06.180Z,1.80
2018-07-03T13:24:35.447Z,1.87
2018-07-03T13:27:03.973Z,1.70
2018-07-03T13:29:32.471Z,1.60
2018-07-03T13:32:02.539Z,1.83
2018-07-03T13:34:31.088Z,1.60
2018-07-03T13:36:59.572Z,1.80
2018-07-03T13:39:28.042Z,2.10
2018-07-03T13:41:56.836Z,1.77
2018-07-03T13:44:25.323Z,1.70
2018-07-03T13:46:53.793Z,1.77
2018-07-03T13:49:22.266Z,1.90
2018-07-03T13:51:50.380Z,1.60
2018-07-03T13:54:18.896Z,1.80
2018-07-03T13:56:47.323Z,1.83
2018-07-03T13:59:15.863Z,2.00
2018-07-03T14:01:44.384Z,1.87
2018-07-03T14:04:12.820Z,1.80
2018-07-03T14:06:41.292Z,2.17
2018-07-03T14:09:10.082Z,2.07
2018-07-03T14:11:38.638Z,3.30
2018-07-03T14:14:07.636Z,2.10
2018-07-03T14:16:36.152Z,2.67
2018-07-03T14:19:04.666Z,2.00
2018-07-03T14:21:33.198Z,2.10
2018-07-03T14:24:01.616Z,2.43
2018-07-03T14:26:30.377Z,1.93
2018-07-03T14:28:58.852Z,2.57
2018-07-03T14:31:27.453Z,2.50
2018-07-03T14:33:55.668Z,2.77
2018-07-03T14:36:24.200Z,2.10
2018-07-03T14:38:52.627Z,2.70
2018-07-03T14:41:21.084Z,2.97
2018-07-03T14:43:49.492Z,3.00
2018-07-03T14:46:17.949Z,3.10
2018-07-03T14:48:46.473Z,2.40
2018-07-03T14:51:15.714Z,2.57
2018-07-03T14:53:44.174Z,2.20
2018-07-03T14:56:13.589Z,2.23
2018-07-03T14:58:42.093Z,2.57
2018-07-03T15:01:10.683Z,2.90
2018-07-03T15:03:39.197Z,2.20
2018-07-03T15:06:07.701Z,2.47
2018-07-03T15:08:36.201Z,2.37
2018-07-03T15:11:04.733Z,2.57
2018-07-03T15:13:33.214Z,3.00
2018-07-03T15:16:01.766Z,2.83
2018-07-03T15:18:35.574Z,2.53
2018-07-03T15:21:04.176Z,2.90
2018-07-03T15:23:32.383Z,2.83
2018-07-03T15:26:00.938Z,2.50
2018-07-03T15:28:29.441Z,2.03
2018-07-03T15:30:57.884Z,2.47
2018-07-03T15:33:26.317Z,2.63
2018-07-03T15:35:54.843Z,2.77
2018-07-03T15:38:23.243Z,2.47
2018-07-03T15:40:51.837Z,2.73
2018-07-03T15:43:20.289Z,2.53
2018-07-03T15:45:48.803Z,2.27
2018-07-03T15:48:17.344Z,2.37
2018-07-03T15:50:45.845Z,2.70
2018-07-03T15:53:14.343Z,2.60
2018-07-03T15:55:43.687Z,2.60
2018-07-03T15:58:12.492Z,2.43
2018-07-03T16:00:41.099Z,2.97
2018-07-03T16:05:24.034Z,2.70
2018-07-03T16:08:02.626Z,2.77
2018-07-03T16:10:31.144Z,2.40
2018-07-03T16:12:59.576Z,2.40
2018-07-03T16:15:28.108Z,2.80
2018-07-03T16:17:56.713Z,2.87
2018-07-03T16:20:31.362Z,3.00
2018-07-03T16:23:00.568Z,2.60
2018-07-03T16:25:29.961Z,2.50
2018-07-03T16:27:58.461Z,2.70
2018-07-03T16:30:26.955Z,2.80
2018-07-03T16:32:55.453Z,2.80
2018-07-03T16:35:23.653Z,2.87
2018-07-03T16:37:52.185Z,2.63
2018-07-03T16:40:20.708Z,2.70
2018-07-03T16:42:49.370Z,2.90
2018-07-03T16:45:17.851Z,2.80
2018-07-03T16:47:46.297Z,2.40
2018-07-03T16:50:14.820Z,2.43
2018-07-03T16:52:43.333Z,2.50
2018-07-03T16:55:12.066Z,2.93
2018-07-03T16:57:40.634Z,4.00
2018-07-03T17:00:09.459Z,3.40
2018-07-03T17:02:38.053Z,3.53
2018-07-03T17:05:06.564Z,4.50
2018-07-03T17:07:35.148Z,2.70
2018-07-03T17:10:03.713Z,3.30
2018-07-03T17:12:32.258Z,3.13
2018-07-03T17:15:00.880Z,3.90
2018-07-03T17:17:29.397Z,3.57
2018-07-03T17:19:58.955Z,3.60
2018-07-03T17:22:27.490Z,3.37
2018-07-03T17:24:56.270Z,3.63
2018-07-03T17:27:24.730Z,3.77
2018-07-03T17:29:53.392Z,3.13
2018-07-03T17:32:21.982Z,3.40
2018-07-03T17:34:51.031Z,3.27
2018-07-03T17:37:19.490Z,3.53
2018-07-03T17:39:59.358Z,3.10
2018-07-03T17:42:38.897Z,2.80
2018-07-03T17:45:45.315Z,3.13
2018-07-03T17:48:15.152Z,3.03
2018-07-03T17:50:44.041Z,2.93
2018-07-03T17:53:13.181Z,3.30
2018-07-03T17:55:41.823Z,3.00
2018-07-03T17:58:10.452Z,3.10
2018-07-03T18:00:39.005Z,3.33
2018-07-03T18:03:07.595Z,3.17
2018-07-03T18:05:36.132Z,2.80
2018-07-03T18:08:05.060Z,3.27
2018-07-03T18:10:33.581Z,3.20
2018-07-03T18:13:02.085Z,3.10
2018-07-03T18:15:30.634Z,3.30
2018-07-03T18:17:59.830Z,3.20
2018-07-03T18:20:28.348Z,2.80
2018-07-03T18:22:57.580Z,3.03
2018-07-03T18:25:25.857Z,2.70
2018-07-03T18:27:53.993Z,3.20
2018-07-03T18:30:22.609Z,3.17
2018-07-03T18:32:51.688Z,2.80
2018-07-03T18:35:20.352Z,3.20
2018-07-03T18:37:49.085Z,3.10
2018-07-03T18:40:17.650Z,3.30
2018-07-03T18:42:46.226Z,3.00
2018-07-03T18:45:14.769Z,3.10
2018-07-03T18:47:43.421Z,2.70
2018-07-03T18:50:11.969Z,3.13
2018-07-03T18:52:40.631Z,2.77
2018-07-03T18:55:09.433Z,2.57
2018-07-03T18:57:38.028Z,2.53
2018-07-03T19:00:06.922Z,2.77
2018-07-03T19:02:35.618Z,2.87
2018-07-03T19:05:04.402Z,3.07
2018-07-03T19:07:32.917Z,2.63
2018-07-03T19:10:01.422Z,2.83
2018-07-03T19:12:29.977Z,2.90
2018-07-03T19:14:58.521Z,2.80
2018-07-03T19:17:27.064Z,3.17
2018-07-03T19:19:55.974Z,3.30
2018-07-03T19:22:24.512Z,3.60
2018-07-03T19:24:53.507Z,3.30
2018-07-03T19:27:22.121Z,2.60
2018-07-03T19:29:50.415Z,3.17
2018-07-03T19:32:18.920Z,3.33
2018-07-03T19:34:47.721Z,2.87
2018-07-03T19:37:16.587Z,3.67
2018-07-03T19:39:45.125Z,3.33
2018-07-03T19:42:13.663Z,3.13
2018-07-03T19:44:42.157Z,3.60
2018-07-03T19:47:10.766Z,3.50
2018-07-03T19:49:39.269Z,3.07
2018-07-03T19:52:07.795Z,3.30
2018-07-03T19:54:36.773Z,3.80
2018-07-03T19:57:05.498Z,3.97
2018-07-03T19:59:34.004Z,3.37
2018-07-03T20:02:02.556Z,3.47
2018-07-03T20:04:31.056Z,3.17
2018-07-03T20:06:59.621Z,3.27
2018-07-03T20:09:28.500Z,3.30
2018-07-03T20:11:57.126Z,3.50
2018-07-03T20:14:25.594Z,3.40
2018-07-03T20:16:54.106Z,3.37
2018-07-03T20:19:22.611Z,3.57
2018-07-03T20:21:51.162Z,3.40
2018-07-03T20:24:19.652Z,3.53
2018-07-03T20:26:48.034Z,3.73
2018-07-03T20:29:16.568Z,3.70
2018-07-03T20:31:45.294Z,2.90
2018-07-03T20:34:13.857Z,3.50
2018-07-03T20:36:42.433Z,3.50
2018-07-03T20:39:11.633Z,3.87
2018-07-03T20:41:40.114Z,3.97
2018-07-03T20:44:08.693Z,3.63
2018-07-03T20:46:37.284Z,3.50
2018-07-03T20:49:05.844Z,3.50
2018-07-03T20:51:34.350Z,3.17
2018-07-03T20:54:03.337Z,3.87
2018-07-03T20:56:31.897Z,3.50
2018-07-03T20:59:00.422Z,4.40
2018-07-03T21:01:28.893Z,3.57
2018-07-03T21:03:58.159Z,3.27
2018-07-03T21:06:26.624Z,3.80
2018-07-03T21:08:55.125Z,3.70
2018-07-03T21:11:23.640Z,3.60
2018-07-03T21:13:52.454Z,3.10
2018-07-03T21:16:20.949Z,3.90
2018-07-03T21:18:49.517Z,4.40
2018-07-03T21:21:18.049Z,3.60
2018-07-03T21:23:46.738Z,4.00
2018-07-03T21:26:15.237Z,3.83
2018-07-03T21:28:43.745Z,4.10
2018-07-03T21:31:12.329Z,3.70
2018-07-03T21:33:40.763Z,3.40
2018-07-03T21:36:09.322Z,3.50
2018-07-03T21:38:38.586Z,3.83
2018-07-03T21:41:07.681Z,4.10
2018-07-03T21:43:36.140Z,3.57
2018-07-03T21:46:04.661Z,4.20
2018-07-03T21:48:33.106Z,4.60
2018-07-03T21:51:01.626Z,4.43
2018-07-03T21:53:30.183Z,4.37
2018-07-03T21:55:58.657Z,4.10
2018-07-03T21:58:27.197Z,3.83
2018-07-03T22:00:55.735Z,4.17
2018-07-03T22:03:24.225Z,3.90
2018-07-03T22:05:52.686Z,4.50
2018-07-03T22:08:21.151Z,4.50
2018-07-03T22:10:49.620Z,3.90
2018-07-03T22:13:18.102Z,4.20
2018-07-03T22:15:46.574Z,4.13
2018-07-03T22:18:15.038Z,4.10
2018-07-03T22:20:43.493Z,3.80
2018-07-03T22:23:12.082Z,4.77
2018-07-03T22:25:40.530Z,4.83
2018-07-03T22:28:09.046Z,4.57
2018-07-03T22:30:37.577Z,4.30
2018-07-03T22:33:07.097Z,4.60
2018-07-03T22:35:36.297Z,4.37
2018-07-03T22:38:05.023Z,4.50
2018-07-03T22:40:33.533Z,4.20
2018-07-03T22:43:02.043Z,5.30
2018-07-03T22:45:30.543Z,4.10
2018-07-03T22:47:58.980Z,4.33
2018-07-03T22:50:27.561Z,4.97
2018-07-03T22:52:56.066Z,4.87
2018-07-03T22:55:24.545Z,4.33
2018-07-03T22:57:53.074Z,4.40
2018-07-03T23:00:21.591Z,4.90
2018-07-03T23:02:50.732Z,4.40
2018-07-03T23:05:19.368Z,4.77
2018-07-03T23:07:47.554Z,4.23
2018-07-03T23:10:16.006Z,4.57
2018-07-03T23:12:44.480Z,4.40
2018-07-03T23:15:12.917Z,5.33
2018-07-03T23:17:41.421Z,4.83
2018-07-03T23:20:09.953Z,5.20
2018-07-03T23:22:38.464Z,4.67
2018-07-03T23:25:06.945Z,4.13
2018-07-03T23:27:35.429Z,4.60
2018-07-03T23:30:04.043Z,4.97
2018-07-03T23:32:32.557Z,4.20
2018-07-03T23:35:01.041Z,4.83
2018-07-03T23:37:29.160Z,4.20
2018-07-03T23:39:57.649Z,4.80
2018-07-03T23:42:26.097Z,5.33
2018-07-03T23:44:54.552Z,4.83
2018-07-03T23:47:28.335Z,4.77
2018-07-03T23:50:08.007Z,4.70
2018-07-03T23:52:47.776Z,5.10
2018-07-03T23:55:27.521Z,4.47
2018-07-03T23:58:07.274Z,4.93
